Weather at Tessaoua Airport

Public forecast

Using degrees Celsius for public forecast. Weather courtesy of forecast.io.

Closest aviation weather report (METAR) to Tessaoua Airport

Report is more than 6 hours old.

Closest report is Maradi Airport, 54.3 nm (100.6 km) WSW.

2024/05/24 18:00 (retrieved 12 hours ago)

DRRM 241800Z 00000KT CAVOK 41/13 Q1006

Closest aviation forecast (TAF) to Tessaoua Airport

Closest forecast is Zinder Airport, 56.2 nm (104.1 km) E.

2024/05/25 06:24 (retrieved 0 seconds ago)

TAF TAF DRZR 250500Z 2506/2606 24008KT CAVOK PROB30 2414/2418 VRB25KT 1200 BLDU -TSRA SCT030 FEW040CB